Flight Track Log - Related Links

Times and Time Zones

All times are in EDT time to prevent confusion due to time zone crossing. See the N27XP flight status page for this flight to view local times or setup timezone preferences in your user account.

Time Position Orientation Groundspeed Altitude Reporting Facility
EDT Latitude Longitude Course Direction KTS MPH feet Rate Location/Type
Sat 10:59:46 AM 35.8542 -78.8108 251° West 176 203 1,100  Level Washington Center
Sat 11:01:50 AM 35.8194 -78.9375 251° West 238 274 5,900 2,473 Climbing Washington Center
Sat 11:02:48 AM 35.8231 -79.0222 273° West 238 274 8,600 2,521 Climbing Washington Center
Sat 11:03:49 AM 35.8269 -79.1069 273° West 249 287 10,900 2,011 Climbing Washington Center
Sat 11:05:44 AM 35.8333 -79.3028 272° West 294 338 14,500 1,954 Climbing Atlanta Center
Sat 11:06:44 AM 35.8292 -79.4081 267° West 300 345 16,600 1,950 Climbing Atlanta Center
Sat 11:07:44 AM 35.8203 -79.5058 264° West 305 351 18,400 1,900 Climbing Atlanta Center
Sat 11:08:44 AM 35.8072 -79.6064 261° West 305 351 20,400 1,800 Climbing Atlanta Center
Sat 11:09:44 AM 35.7858 -79.7125 256° West 299 344 22,000 1,500 Climbing Atlanta Center
Sat 11:10:44 AM 35.7686 -79.8133 258° West 300 345 23,400 1,300 Climbing Atlanta Center
Sat 11:11:44 AM 35.7531 -79.9114 259° West 313 360 24,600 1,200 Climbing Atlanta Center
Sat 11:12:44 AM 35.7336 -80.0147 257° West 319 367 25,800 1,050 Climbing Atlanta Center
Sat 11:13:44 AM 35.7122 -80.1283 257° West 325 374 26,700 1,000 Climbing Atlanta Center
Sat 11:14:44 AM 35.7039 -80.2564 265° West 341 392 27,800 900 Climbing Atlanta Center
Sat 11:15:44 AM 35.7136 -80.3711 276° West 348 400 28,500 800 Climbing Atlanta Center
Sat 11:16:44 AM 35.7233 -80.4908 276° West 348 400 29,400 950 Climbing Atlanta Center
Sat 11:17:44 AM 35.7331 -80.6133 276° West 348 400 30,400 1,000 Climbing Atlanta Center
Sat 11:18:44 AM 35.7428 -80.7356 276° West 353 406 31,400 950 Climbing Atlanta Center
Sat 11:19:44 AM 35.7500 -80.8556 274° West 353 406 32,300 850 Climbing Atlanta Center
Sat 11:20:44 AM 35.7594 -80.9781 275° West 353 406 33,100 800 Climbing Atlanta Center
Sat 11:21:44 AM 35.7686 -81.1031 275° West 363 418 33,900 800 Climbing Atlanta Center
Sat 11:22:44 AM 35.7800 -81.2281 276° West 368 423 34,700 650 Climbing Atlanta Center
Sat 11:23:44 AM 35.7850 -81.3561 273° West 368 423 35,200 500 Climbing Atlanta Center
Sat 11:24:44 AM 35.7897 -81.4839 273° West 368 423 35,700 550 Climbing Atlanta Center
Sat 11:25:44 AM 35.7986 -81.6142 275° West 368 423 36,300 600 Climbing Atlanta Center
Sat 11:26:44 AM 35.8050 -81.7292 274° West 368 423 36,900 550 Climbing Atlanta Center
Sat 11:27:44 AM 35.8114 -81.8569 274° West 373 429 37,400 500 Climbing Atlanta Center
Sat 11:28:44 AM 35.8219 -81.9847 276° West 378 435 37,900 300 Climbing Atlanta Center
Sat 11:29:44 AM 35.8242 -82.1128 271° West 383 441 38,000 50 Climbing Atlanta Center
Sat 11:30:44 AM 35.8283 -82.2561 272° West 383 441 38,000  Level Atlanta Center
Sat 11:31:44 AM 35.8367 -82.3917 274° West 383 441 38,000  Level Atlanta Center
Sat 11:32:44 AM 35.8425 -82.5325 273° West 394 453 38,000  Level Atlanta Center
Sat 11:33:44 AM 35.8503 -82.6706 274° West 405 466 38,000  Level Atlanta Center
Sat 11:34:44 AM 35.8561 -82.8089 273° West 405 466 38,000  Level Atlanta Center
Sat 11:35:44 AM 35.8636 -82.9497 274° West 405 466 38,000  Level Atlanta Center
Sat 11:36:44 AM 35.8689 -83.0881 273° West 405 466 38,000  Level Atlanta Center
Sat 11:37:44 AM 35.8739 -83.2136 273° West 405 466 38,000  Level Atlanta Center
Sat 11:38:44 AM 35.8833 -83.3519 275° West 405 466 38,000  Level Atlanta Center
Sat 11:39:44 AM 35.8903 -83.5031 273° West 405 466 38,000  Level Atlanta Center
Sat 11:40:44 AM 35.8950 -83.6414 272° West 405 466 38,000  Level Atlanta Center
Sat 11:41:44 AM 35.8994 -83.7797 272° West 405 466 38,000  Level Atlanta Center
Sat 11:42:44 AM 35.9058 -83.9208 273° West 405 466 38,000  Level Atlanta Center
Sat 11:43:44 AM 35.9186 -84.0567 277° West 405 466 38,000  Level Atlanta Center
Sat 11:44:44 AM 35.9331 -84.1953 277° West 405 466 38,000  Level Atlanta Center
Sat 11:45:44 AM 35.9453 -84.3311 276° West 405 466 38,000  Level Atlanta Center
Sat 11:46:44 AM 35.9594 -84.4697 277° West 405 466 38,000  Level Atlanta Center
Sat 11:47:44 AM 35.9694 -84.5931 276° West 405 466 38,000  Level Atlanta Center
Sat 11:49:20 AM 35.9928 -84.8106 278° West 407 468 38,000  Level Memphis Center
Sat 11:50:20 AM 36.0056 -84.9558 276° West 414 476 38,000  Level Memphis Center
Sat 11:51:20 AM 36.0156 -85.0964 275° West 420 483 38,000  Level Memphis Center
Sat 11:52:20 AM 36.0256 -85.2317 275° West 420 483 38,000  Level Memphis Center
Sat 11:53:20 AM 36.0353 -85.3697 275° West 415 478 38,000  Level Memphis Center
Sat 11:54:20 AM 36.0656 -85.4989 286° West 410 472 38,000  Level Memphis Center
Sat 11:55:20 AM 36.1303 -85.6081 306° West 388 447 38,000  Level Memphis Center
Sat 11:56:20 AM 36.1992 -85.7225 307° West 393 452 38,000  Level Memphis Center
Sat 11:57:20 AM 36.2744 -85.8417 308° West 404 465 38,000  Level Memphis Center
Sat 11:58:20 AM 36.3408 -85.9514 307° West 413 475 38,000  Level Memphis Center
Sat 11:59:20 AM 36.4097 -86.0689 306° West 413 475 38,000  Level Memphis Center
Sat 12:00:20 PM 36.4803 -86.1864 307° West 425 489 38,000  Level Memphis Center
Sat 12:01:20 PM 36.5486 -86.2992 307° West 420 483 38,000  Level Memphis Center
Sat 12:02:20 PM 36.6192 -86.4144 307° West 420 483 38,000  Level Memphis Center
Sat 12:03:20 PM 36.6872 -86.5300 306° West 420 483 38,000  Level Memphis Center
Sat 12:04:20 PM 36.7511 -86.6436 305° West 408 470 38,000  Level Memphis Center
Sat 12:05:20 PM 36.8150 -86.7572 305° West 408 470 38,000  Level Memphis Center
Sat 12:06:20 PM 36.8806 -86.8683 306° West 408 470 38,000  Level Memphis Center
Sat 12:07:20 PM 36.9375 -86.9672 306° West 402 463 38,000  Level Memphis Center
Sat 12:08:20 PM 37.0031 -87.0786 306° West 397 457 38,000  Level Memphis Center
Sat 12:09:20 PM 37.0644 -87.1906 305° West 397 457 38,000  Level Memphis Center
Sat 12:10:20 PM 37.1275 -87.3000 306° West 392 451 38,000  Level Memphis Center
Sat 12:11:20 PM 37.1928 -87.4119 306° West 392 451 38,000  Level Memphis Center
Sat 12:12:20 PM 37.2558 -87.5217 306° West 397 457 38,000  Level Memphis Center
Sat 12:13:20 PM 37.3186 -87.6367 304° West 397 457 38,000  Level Memphis Center
Sat 12:14:20 PM 37.3836 -87.7467 307° West 397 457 38,000  Level Memphis Center
Sat 12:15:20 PM 37.4506 -87.8672 305° West 403 464 38,000  Level Memphis Center
Sat 12:17:09 PM 37.5653 -88.0750 305° West 398 458 38,000  Level Kansas City Center
Sat 12:18:10 PM 37.6300 -88.1908 305° West 399 459 38,000  Level Kansas City Center
Sat 12:19:11 PM 37.6928 -88.3053 305° West 397 457 38,000  Level Kansas City Center
Sat 12:20:14 PM 37.7572 -88.4200 305° West 397 457 38,000  Level Kansas City Center
Sat 12:21:15 PM 37.8197 -88.5339 305° West 394 453 38,000  Level Kansas City Center
Sat 12:22:18 PM 37.8831 -88.6481 305° West 394 453 38,000  Level Kansas City Center
Sat 12:23:18 PM 37.9436 -88.7583 305° West 397 457 38,000  Level Kansas City Center
Sat 12:24:22 PM 38.0194 -88.8944 305° West 396 456 38,000  Level Kansas City Center
Sat 12:25:23 PM 38.0819 -89.0094 305° West 395 455 38,000  Level Kansas City Center
Sat 12:26:26 PM 38.1447 -89.1297 304° West 396 456 38,000  Level Kansas City Center
Sat 12:27:27 PM 38.2103 -89.2511 305° West 387 445 38,000  Level Kansas City Center
Sat 12:28:31 PM 38.2719 -89.3650 305° West 391 450 38,000  Level Kansas City Center
Sat 12:29:31 PM 38.3375 -89.4883 304° West 390 449 38,000  Level Kansas City Center
Sat 12:30:34 PM 38.3978 -89.5997 305° West 385 443 38,000  Level Kansas City Center
Sat 12:31:35 PM 38.4528 -89.7175 301° West 386 444 38,000  Level Kansas City Center
Sat 12:32:36 PM 38.4914 -89.8444 291° West 386 444 38,000  Level Kansas City Center
Sat 12:33:40 PM 38.5486 -89.9578 303° West 381 438 38,000  Level Kansas City Center
Sat 12:34:40 PM 38.6114 -90.0661 307° West 382 440 38,000  Level Kansas City Center
Sat 12:35:43 PM 38.6756 -90.1839 305° West 380 437 38,000  Level Kansas City Center
Sat 12:36:44 PM 38.7381 -90.2978 305° West 385 443 38,000  Level Kansas City Center
Sat 12:37:45 PM 38.8019 -90.4144 305° West 391 450 38,000  Level Kansas City Center
Sat 12:38:49 PM 38.8733 -90.5533 303° West 382 440 38,000  Level Kansas City Center
Sat 12:39:50 PM 38.9350 -90.6689 304° West 385 443 38,000  Level Kansas City Center
Sat 12:40:51 PM 38.9981 -90.7906 304° West 391 450 38,000  Level Kansas City Center
Sat 12:41:55 PM 39.0597 -90.9061 305° West 392 451 38,000  Level Kansas City Center
Sat 12:42:55 PM 39.1211 -91.0228 304° West 395 455 38,000  Level Kansas City Center
Sat 12:43:59 PM 39.1831 -91.1397 304° West 396 456 38,000  Level Kansas City Center
Sat 12:44:59 PM 39.2436 -91.2586 303° West 396 456 38,000  Level Kansas City Center
Sat 12:46:00 PM 39.3047 -91.3792 303° West 400 460 38,000  Level Kansas City Center
Sat 12:47:04 PM 39.3667 -91.4972 304° West 399 459 38,000  Level Kansas City Center
Sat 12:48:04 PM 39.4408 -91.6394 304° West 400 460 38,000  Level Kansas City Center
Sat 12:49:07 PM 39.4958 -91.7494 303° West 399 459 38,000  Level Kansas City Center
Sat 12:50:08 PM 39.5575 -91.8683 304° West 399 459 38,000  Level Kansas City Center
Sat 12:51:12 PM 39.6311 -92.0103 304° West 399 459 38,000  Level Kansas City Center
Sat 12:52:12 PM 39.6919 -92.1286 304° West 397 457 38,000  Level Kansas City Center
Sat 12:53:13 PM 39.7531 -92.2492 303° West 400 460 38,000  Level Kansas City Center
Sat 12:54:18 PM 39.8133 -92.3714 303° West 402 463 38,000  Level Kansas City Center
Sat 12:55:19 PM 39.8733 -92.4903 303° West 398 458 38,000  Level Kansas City Center
Sat 12:56:19 PM 39.9333 -92.6111 303° West 397 457 38,000  Level Kansas City Center
Sat 12:57:23 PM 40.0056 -92.7564 303° West 397 457 38,000 -240 Level Kansas City Center
Sat 12:58:24 PM 40.0675 -92.8794 303° West 399 459 37,500 -1,008 Descending Kansas City Center
Sat 12:59:28 PM 40.1258 -92.9958 303° West 400 460 35,900 -1,654 Descending Kansas City Center
Sat 01:00:31 PM 40.1875 -93.1225 303° West 401 461 34,000 -919 Descending Kansas City Center
Sat 01:01:32 PM 40.2456 -93.2400 303° West 391 450 34,000  Level Kansas City Center
Sat 01:02:35 PM 40.3031 -93.3564 303° West 385 443 34,000  Level Kansas City Center
Sat 01:03:35 PM 40.3708 -93.4958 303° West 382 440 34,000  Level Kansas City Center
Sat 01:04:39 PM 40.4269 -93.6119 302° West 379 436 34,000 -214 Level Kansas City Center
Sat 01:04:59 PM 40.4472 -93.6581 300° West 380 437 33,700 -1,683 Descending Minneapolis Center
Sat 01:06:01 PM 40.5033 -93.7769 302° West 383 441 31,700 -2,177 Descending Minneapolis Center
Sat 01:07:03 PM 40.5628 -93.9000 302° West 396 456 29,200 -2,419 Descending Minneapolis Center
Sat 01:08:05 PM 40.6094 -94.0322 295° West 401 461 26,700 -2,758 Descending Minneapolis Center
Sat 01:09:07 PM 40.6347 -94.2011 281° West 394 453 23,500 -2,736 Descending Minneapolis Center
Sat 01:10:10 PM 40.6575 -94.3356 283° West 383 441 21,000 -2,400 Descending Minneapolis Center
Sat 01:11:12 PM 40.6789 -94.4692 282° West 376 433 18,500 -2,177 Descending Minneapolis Center
Sat 01:12:14 PM 40.7000 -94.5975 282° West 371 427 16,500 -1,210 Descending Minneapolis Center
Sat 01:13:16 PM 40.7211 -94.7217 283° West 360 414 16,000 -242 Descending Minneapolis Center
Sat 01:14:18 PM 40.7450 -94.8719 282° West 352 405 16,000  Level Minneapolis Center
Sat 01:15:20 PM 40.7644 -95.0022 281° West 358 412 16,000 -387 Level Minneapolis Center
Sat 01:16:22 PM 40.8036 -95.1236 293° West 362 417 15,200 -1,548 Descending Minneapolis Center
Sat 01:17:24 PM 40.8658 -95.2297 308° West 366 421 12,800 -2,274 Descending Minneapolis Center
Sat 01:18:26 PM 40.9242 -95.3275 308° West 349 402 10,500 -2,129 Descending Minneapolis Center
Sat 01:19:28 PM 40.9789 -95.4183 309° West 325 374 8,400 -1,790 Descending Minneapolis Center
Sat 01:20:30 PM 41.0331 -95.5175 306° West 299 344 6,800 -1,113 Descending Minneapolis Center
Sat 01:21:32 PM 41.0714 -95.5950 303° West 274 315 6,100 -673 Descending Minneapolis Center
Sat 01:22:17 PM 41.1008 -95.6486 306° West 239 275 5,600 -581 Descending Minneapolis Center
Sat 01:22:34 PM 41.1000 -95.6544 259° West 259 298 5,500 -1,522 Descending Minneapolis Center
Sat 01:23:24 PM 41.1422 -95.7350 305° West 240 276 3,900 -1,230 Descending Minneapolis Center
Sat 01:24:36 PM 41.2075 -95.8022 322° Northwest 238 274 3,000 -788 Descending Minneapolis Center
Sat 01:25:41 PM 41.2478 -95.8381 326° Northwest 230 265 2,100 -873 Descending Minneapolis Center
Sat 01:26:26 PM 41.2767 -95.8689 321° Northwest 131 151 1,400 -871 Descending Minneapolis Center
Sat 01:26:43 PM 41.2844 -95.8728 339° North 165 190 1,200 -706 Descending Minneapolis Center
Sat 01:28:00 PM 41.3000 -95.8833 323° Northwest  Level FlightAware Approximate

Login

Don't have an account? Register now (free) for customized features, flight alerts, and more!